sensor_id;sensor_type;location;lat;lon;timestamp;pressure;altitude;pressure_sealevel;temperature;humidity
56668;BME280;42542;48.360;10.958;2023-05-11T00:02:53;95927.22;;;10.38;100.00
56668;BME280;42542;48.360;10.958;2023-05-11T00:05:57;95929.25;;;10.36;100.00
56668;BME280;42542;48.360;10.958;2023-05-11T00:08:59;95926.59;;;10.36;100.00
56668;BME280;42542;48.360;10.958;2023-05-11T00:12:01;95915.75;;;10.30;100.00
56668;BME280;42542;48.360;10.958;2023-05-11T00:15:03;95921.41;;;10.35;100.00
56668;BME280;42542;48.360;10.958;2023-05-11T00:18:05;95926.75;;;10.35;100.00
56668;BME280;42542;48.360;10.958;2023-05-11T00:21:08;95918.22;;;10.31;100.00
56668;BME280;42542;48.360;10.958;2023-05-11T00:24:09;95913.06;;;10.30;100.00
56668;BME280;42542;48.360;10.958;2023-05-11T00:27:11;95915.91;;;10.28;100.00
56668;BME280;42542;48.360;10.958;2023-05-11T00:30:13;95911.56;;;10.27;100.00
56668;BME280;42542;48.360;10.958;2023-05-11T00:33:16;95910.72;;;10.27;100.00
56668;BME280;42542;48.360;10.958;2023-05-11T00:36:18;95909.19;;;10.24;100.00
56668;BME280;42542;48.360;10.958;2023-05-11T00:39:20;95916.22;;;10.25;100.00
56668;BME280;42542;48.360;10.958;2023-05-11T00:42:22;95916.22;;;10.25;100.00
56668;BME280;42542;48.360;10.958;2023-05-11T00:45:24;95914.75;;;10.23;100.00
56668;BME280;42542;48.360;10.958;2023-05-11T00:48:27;95918.22;;;10.23;100.00
56668;BME280;42542;48.360;10.958;2023-05-11T00:51:31;95921.91;;;10.22;100.00
56668;BME280;42542;48.360;10.958;2023-05-11T00:54:34;95914.91;;;10.21;100.00
56668;BME280;42542;48.360;10.958;2023-05-11T00:57:37;95921.06;;;10.22;100.00
56668;BME280;42542;48.360;10.958;2023-05-11T01:00:39;95924.91;;;10.19;100.00
56668;BME280;42542;48.360;10.958;2023-05-11T01:03:42;95927.88;;;10.16;100.00
56668;BME280;42542;48.360;10.958;2023-05-11T01:06:54;95918.88;;;10.17;100.00
56668;BME280;42542;48.360;10.958;2023-05-11T01:10:45;95915.03;;;10.11;100.00
56668;BME280;42542;48.360;10.958;2023-05-11T01:13:52;95917.69;;;10.11;100.00
56668;BME280;42542;48.360;10.958;2023-05-11T01:16:58;95916.84;;;10.11;100.00
56668;BME280;42542;48.360;10.958;2023-05-11T01:20:08;95917.84;;;10.10;100.00
56668;BME280;42542;48.360;10.958;2023-05-11T01:30:25;95900.66;;;10.04;100.00
56668;BME280;42542;48.360;10.958;2023-05-11T01:33:30;95899.34;;;10.00;100.00
56668;BME280;42542;48.360;10.958;2023-05-11T01:36:37;95896.00;;;9.98;100.00
56668;BME280;42542;48.360;10.958;2023-05-11T01:39:49;95894.31;;;9.97;100.00
56668;BME280;42542;48.360;10.958;2023-05-11T01:42:58;95906.84;;;9.97;100.00
56668;BME280;42542;48.360;10.958;2023-05-11T01:46:03;95896.31;;;9.95;100.00
56668;BME280;42542;48.360;10.958;2023-05-11T01:49:06;95899.97;;;9.94;100.00
56668;BME280;42542;48.360;10.958;2023-05-11T01:52:08;95897.66;;;9.91;100.00
56668;BME280;42542;48.360;10.958;2023-05-11T01:55:14;95907.34;;;9.92;100.00
56668;BME280;42542;48.360;10.958;2023-05-11T01:58:17;95901.84;;;9.94;100.00
56668;BME280;42542;48.360;10.958;2023-05-11T02:01:20;95894.81;;;9.93;100.00
56668;BME280;42542;48.360;10.958;2023-05-11T02:04:23;95897.66;;;9.91;100.00
56668;BME280;42542;48.360;10.958;2023-05-11T02:07:26;95900.31;;;9.91;100.00
56668;BME280;42542;48.360;10.958;2023-05-11T02:10:31;95897.66;;;9.91;100.00
56668;BME280;42542;48.360;10.958;2023-05-11T02:13:35;95902.16;;;9.91;100.00
56668;BME280;42542;48.360;10.958;2023-05-11T02:16:39;95895.97;;;9.90;100.00
56668;BME280;42542;48.360;10.958;2023-05-11T02:19:43;95901.31;;;9.90;100.00
56668;BME280;42542;48.360;10.958;2023-05-11T02:22:45;95904.16;;;9.89;100.00
56668;BME280;42542;48.360;10.958;2023-05-11T02:25:48;95901.63;;;9.87;100.00
56668;BME280;42542;48.360;10.958;2023-05-11T02:28:50;95900.84;;;9.87;100.00
56668;BME280;42542;48.360;10.958;2023-05-11T02:32:04;95907.81;;;9.88;100.00
56668;BME280;42542;48.360;10.958;2023-05-11T02:35:16;95900.16;;;9.85;100.00
56668;BME280;42542;48.360;10.958;2023-05-11T02:38:25;95912.66;;;9.84;100.00
56668;BME280;42542;48.360;10.958;2023-05-11T02:41:31;95903.13;;;9.82;100.00
56668;BME280;42542;48.360;10.958;2023-05-11T02:44:35;95899.47;;;9.83;100.00
56668;BME280;42542;48.360;10.958;2023-05-11T02:47:51;95898.81;;;9.80;100.00
56668;BME280;42542;48.360;10.958;2023-05-11T02:50:59;95891.81;;;9.79;100.00
56668;BME280;42542;48.360;10.958;2023-05-11T02:54:09;95881.31;;;9.78;100.00
56668;BME280;42542;48.360;10.958;2023-05-11T02:57:16;95889.47;;;9.76;100.00
56668;BME280;42542;48.360;10.958;2023-05-11T03:00:19;95890.97;;;9.79;100.00
56668;BME280;42542;48.360;10.958;2023-05-11T03:03:23;95881.78;;;9.73;100.00
56668;BME280;42542;48.360;10.958;2023-05-11T03:06:25;95893.28;;;9.74;100.00
56668;BME280;42542;48.360;10.958;2023-05-11T03:09:28;95880.78;;;9.74;100.00
56668;BME280;42542;48.360;10.958;2023-05-11T03:12:29;95883.44;;;9.74;100.00
56668;BME280;42542;48.360;10.958;2023-05-11T03:15:36;95891.47;;;9.74;100.00
56668;BME280;42542;48.360;10.958;2023-05-11T03:18:40;95886.47;;;9.71;100.00
56668;BME280;42542;48.360;10.958;2023-05-11T03:21:44;95881.28;;;9.70;100.00
56668;BME280;42542;48.360;10.958;2023-05-11T03:24:47;95882.97;;;9.71;100.00
56668;BME280;42542;48.360;10.958;2023-05-11T03:27:50;95881.97;;;9.72;100.00
56668;BME280;42542;48.360;10.958;2023-05-11T03:30:53;95876.63;;;9.72;100.00
56668;BME280;42542;48.360;10.958;2023-05-11T03:33:57;95879.09;;;9.73;100.00
56668;BME280;42542;48.360;10.958;2023-05-11T03:37:00;95875.94;;;9.70;100.00
56668;BME280;42542;48.360;10.958;2023-05-11T03:40:04;95881.13;;;9.71;100.00
56668;BME280;42542;48.360;10.958;2023-05-11T03:43:18;95871.09;;;9.73;100.00
56668;BME280;42542;48.360;10.958;2023-05-11T03:46:24;95869.25;;;9.74;100.00
56668;BME280;42542;48.360;10.958;2023-05-11T03:49:28;95865.59;;;9.75;100.00
56668;BME280;42542;48.360;10.958;2023-05-11T03:52:31;95873.59;;;9.75;100.00
56668;BME280;42542;48.360;10.958;2023-05-11T03:55:33;95876.28;;;9.75;100.00
56668;BME280;42542;48.360;10.958;2023-05-11T03:58:39;95877.13;;;9.75;100.00
56668;BME280;42542;48.360;10.958;2023-05-11T04:01:42;95873.44;;;9.76;100.00
56668;BME280;42542;48.360;10.958;2023-05-11T04:04:44;95869.78;;;9.77;100.00
56668;BME280;42542;48.360;10.958;2023-05-11T04:07:46;95867.13;;;9.77;100.00
56668;BME280;42542;48.360;10.958;2023-05-11T04:10:48;95866.28;;;9.77;100.00
56668;BME280;42542;48.360;10.958;2023-05-11T04:13:50;95857.44;;;9.76;100.00
56668;BME280;42542;48.360;10.958;2023-05-11T04:16:52;95867.78;;;9.79;100.00
56668;BME280;42542;48.360;10.958;2023-05-11T04:19:53;95864.94;;;9.81;100.00
56668;BME280;42542;48.360;10.958;2023-05-11T04:22:56;95859.94;;;9.78;100.00
56668;BME280;42542;48.360;10.958;2023-05-11T04:25:58;95867.44;;;9.83;100.00
56668;BME280;42542;48.360;10.958;2023-05-11T04:29:01;95861.78;;;9.77;100.00
56668;BME280;42542;48.360;10.958;2023-05-11T04:32:02;95864.28;;;9.79;100.00
56668;BME280;42542;48.360;10.958;2023-05-11T04:35:05;95857.28;;;9.78;100.00
56668;BME280;42542;48.360;10.958;2023-05-11T04:38:10;95859.78;;;9.79;100.00
56668;BME280;42542;48.360;10.958;2023-05-11T04:41:14;95864.28;;;9.79;100.00
56668;BME280;42542;48.360;10.958;2023-05-11T04:44:16;95872.94;;;9.81;100.00
56668;BME280;42542;48.360;10.958;2023-05-11T04:47:19;95864.28;;;9.79;100.00
56668;BME280;42542;48.360;10.958;2023-05-11T04:50:22;95862.25;;;9.81;100.00
56668;BME280;42542;48.360;10.958;2023-05-11T04:53:26;95861.63;;;9.79;100.00
56668;BME280;42542;48.360;10.958;2023-05-11T04:56:28;95865.78;;;9.82;100.00
56668;BME280;42542;48.360;10.958;2023-05-11T04:59:31;95869.13;;;9.84;100.00
56668;BME280;42542;48.360;10.958;2023-05-11T05:02:34;95869.97;;;9.84;100.00
56668;BME280;42542;48.360;10.958;2023-05-11T05:05:36;95868.44;;;9.82;100.00
56668;BME280;42542;48.360;10.958;2023-05-11T05:08:39;95859.94;;;9.86;100.00
56668;BME280;42542;48.360;10.958;2023-05-11T05:11:41;95864.25;;;9.87;100.00
56668;BME280;42542;48.360;10.958;2023-05-11T05:14:43;95857.94;;;9.88;100.00
56668;BME280;42542;48.360;10.958;2023-05-11T05:17:45;95868.44;;;9.90;100.00
56668;BME280;42542;48.360;10.958;2023-05-11T05:20:48;95862.94;;;9.91;100.00
56668;BME280;42542;48.360;10.958;2023-05-11T05:23:51;95861.13;;;9.92;100.00
56668;BME280;42542;48.360;10.958;2023-05-11T05:26:53;95860.75;;;9.95;100.00
56668;BME280;42542;48.360;10.958;2023-05-11T05:29:55;95868.63;;;9.96;100.00
56668;BME280;42542;48.360;10.958;2023-05-11T05:32:59;95860.13;;;9.93;100.00
56668;BME280;42542;48.360;10.958;2023-05-11T05:36:01;95868.63;;;9.96;100.00
56668;BME280;42542;48.360;10.958;2023-05-11T05:39:03;95865.47;;;9.93;100.00
56668;BME280;42542;48.360;10.958;2023-05-11T05:42:11;95874.63;;;9.98;100.00
56668;BME280;42542;48.360;10.958;2023-05-11T05:45:14;95870.13;;;9.99;100.00
56668;BME280;42542;48.360;10.958;2023-05-11T05:48:17;95875.97;;;10.02;100.00
56668;BME280;42542;48.360;10.958;2023-05-11T05:51:19;95878.47;;;10.04;100.00
56668;BME280;42542;48.360;10.958;2023-05-11T05:54:21;95875.63;;;10.05;100.00
56668;BME280;42542;48.360;10.958;2023-05-11T05:57:22;95879.81;;;10.08;100.00
56668;BME280;42542;48.360;10.958;2023-05-11T06:00:25;95876.97;;;10.09;100.00
56668;BME280;42542;48.360;10.958;2023-05-11T06:03:35;95875.13;;;10.10;100.00
56668;BME280;42542;48.360;10.958;2023-05-11T06:06:38;95867.31;;;10.08;100.00
56668;BME280;42542;48.360;10.958;2023-05-11T06:09:40;95870.97;;;10.15;100.00
56668;BME280;42542;48.360;10.958;2023-05-11T06:12:43;95874.44;;;10.16;100.00
56668;BME280;42542;48.360;10.958;2023-05-11T06:15:45;95880.50;;;10.18;100.00
56668;BME280;42542;48.360;10.958;2023-05-11T06:19:01;95881.84;;;10.22;100.00
56668;BME280;42542;48.360;10.958;2023-05-11T06:22:03;95878.97;;;10.24;100.00
56668;BME280;42542;48.360;10.958;2023-05-11T06:25:09;95878.00;;;10.25;100.00
56668;BME280;42542;48.360;10.958;2023-05-11T06:28:13;95881.16;;;10.28;100.00
56668;BME280;42542;48.360;10.958;2023-05-11T06:31:16;95882.66;;;10.31;100.00
56668;BME280;42542;48.360;10.958;2023-05-11T06:34:21;95879.81;;;10.32;100.00
56668;BME280;42542;48.360;10.958;2023-05-11T06:37:23;95871.47;;;10.35;100.00
56668;BME280;42542;48.360;10.958;2023-05-11T06:40:26;95874.81;;;10.37;100.00
56668;BME280;42542;48.360;10.958;2023-05-11T06:43:28;95875.47;;;10.39;100.00
56668;BME280;42542;48.360;10.958;2023-05-11T06:46:35;95872.47;;;10.42;100.00
56668;BME280;42542;48.360;10.958;2023-05-11T06:49:40;95872.63;;;10.41;100.00
56668;BME280;42542;48.360;10.958;2023-05-11T06:52:43;95872.63;;;10.41;100.00
56668;BME280;42542;48.360;10.958;2023-05-11T06:55:44;95873.31;;;10.43;100.00
56668;BME280;42542;48.360;10.958;2023-05-11T06:58:46;95870.63;;;10.43;100.00
56668;BME280;42542;48.360;10.958;2023-05-11T07:01:48;95866.28;;;10.42;100.00
56668;BME280;42542;48.360;10.958;2023-05-11T07:04:50;95867.59;;;10.46;100.00
56668;BME280;42542;48.360;10.958;2023-05-11T07:07:52;95869.28;;;10.47;100.00
56668;BME280;42542;48.360;10.958;2023-05-11T07:10:55;95870.13;;;10.47;100.00
56668;BME280;42542;48.360;10.958;2023-05-11T07:13:57;95870.44;;;10.52;100.00
56668;BME280;42542;48.360;10.958;2023-05-11T07:16:59;95870.94;;;10.56;100.00
56668;BME280;42542;48.360;10.958;2023-05-11T07:20:00;95871.63;;;10.58;100.00
56668;BME280;42542;48.360;10.958;2023-05-11T07:23:03;95867.91;;;10.59;100.00
56668;BME280;42542;48.360;10.958;2023-05-11T07:26:04;95866.59;;;10.63;100.00
56668;BME280;42542;48.360;10.958;2023-05-11T07:29:09;95866.41;;;10.65;100.00
56668;BME280;42542;48.360;10.958;2023-05-11T07:32:11;95868.72;;;10.68;100.00
56668;BME280;42542;48.360;10.958;2023-05-11T07:35:13;95871.06;;;10.71;100.00
56668;BME280;42542;48.360;10.958;2023-05-11T07:38:15;95866.56;;;10.71;100.00
56668;BME280;42542;48.360;10.958;2023-05-11T07:41:19;95863.72;;;10.73;100.00
56668;BME280;42542;48.360;10.958;2023-05-11T07:44:22;95862.69;;;10.74;100.00
56668;BME280;42542;48.360;10.958;2023-05-11T07:47:24;95872.91;;;10.78;100.00
56668;BME280;42542;48.360;10.958;2023-05-11T07:50:26;95862.88;;;10.80;100.00
56668;BME280;42542;48.360;10.958;2023-05-11T07:53:28;95870.69;;;10.82;100.00
56668;BME280;42542;48.360;10.958;2023-05-11T07:56:30;95864.50;;;10.81;100.00
56668;BME280;42542;48.360;10.958;2023-05-11T07:59:32;95868.69;;;10.84;100.00
56668;BME280;42542;48.360;10.958;2023-05-11T08:02:34;95867.84;;;10.83;100.00
56668;BME280;42542;48.360;10.958;2023-05-11T08:05:37;95871.03;;;10.87;100.00
56668;BME280;42542;48.360;10.958;2023-05-11T08:08:38;95865.31;;;10.90;100.00
56668;BME280;42542;48.360;10.958;2023-05-11T08:11:40;95866.66;;;10.94;100.00
56668;BME280;42542;48.360;10.958;2023-05-11T08:14:42;95865.63;;;10.95;100.00
56668;BME280;42542;48.360;10.958;2023-05-11T08:17:45;95864.16;;;10.92;100.00
56668;BME280;42542;48.360;10.958;2023-05-11T08:20:47;95860.47;;;10.93;100.00
56668;BME280;42542;48.360;10.958;2023-05-11T08:23:49;95864.81;;;10.94;100.00
56668;BME280;42542;48.360;10.958;2023-05-11T08:26:51;95867.97;;;10.98;100.00
56668;BME280;42542;48.360;10.958;2023-05-11T08:29:54;95872.31;;;10.99;100.00
56668;BME280;42542;48.360;10.958;2023-05-11T08:32:55;95871.31;;;11.00;100.00
56668;BME280;42542;48.360;10.958;2023-05-11T08:36:01;95875.00;;;10.99;100.00
56668;BME280;42542;48.360;10.958;2023-05-11T08:39:04;95874.50;;;10.95;100.00
56668;BME280;42542;48.360;10.958;2023-05-11T08:42:07;95874.72;;;10.86;100.00
56668;BME280;42542;48.360;10.958;2023-05-11T08:45:10;95874.53;;;10.87;100.00
56668;BME280;42542;48.360;10.958;2023-05-11T08:48:17;95871.03;;;10.87;100.00
56668;BME280;42542;48.360;10.958;2023-05-11T08:51:19;95873.72;;;10.87;100.00
56668;BME280;42542;48.360;10.958;2023-05-11T08:54:21;95879.53;;;10.90;100.00
56668;BME280;42542;48.360;10.958;2023-05-11T08:57:24;95877.53;;;10.92;100.00
56668;BME280;42542;48.360;10.958;2023-05-11T09:00:29;95870.81;;;10.96;100.00
56668;BME280;42542;48.360;10.958;2023-05-11T09:03:33;95866.44;;;11.04;100.00
56668;BME280;42542;48.360;10.958;2023-05-11T09:06:37;95871.28;;;11.08;100.00
56668;BME280;42542;48.360;10.958;2023-05-11T09:09:39;95876.09;;;11.13;100.00
56668;BME280;42542;48.360;10.958;2023-05-11T09:12:42;95879.47;;;11.15;100.00
56668;BME280;42542;48.360;10.958;2023-05-11T09:15:44;95868.09;;;11.13;100.00
56668;BME280;42542;48.360;10.958;2023-05-11T09:18:50;95875.78;;;11.16;100.00
56668;BME280;42542;48.360;10.958;2023-05-11T09:21:53;95865.91;;;11.16;100.00
56668;BME280;42542;48.360;10.958;2023-05-11T09:24:56;95873.09;;;11.16;100.00
56668;BME280;42542;48.360;10.958;2023-05-11T09:27:58;95871.25;;;11.16;100.00
56668;BME280;42542;48.360;10.958;2023-05-11T09:31:01;95869.88;;;11.20;100.00
56668;BME280;42542;48.360;10.958;2023-05-11T09:37:19;95875.91;;;11.22;100.00
56668;BME280;42542;48.360;10.958;2023-05-11T09:40:20;95864.00;;;11.25;100.00
56668;BME280;42542;48.360;10.958;2023-05-11T09:43:29;95869.84;;;11.28;100.00
56668;BME280;42542;48.360;10.958;2023-05-11T09:46:31;95873.53;;;11.27;100.00
56668;BME280;42542;48.360;10.958;2023-05-11T09:49:33;95864.97;;;11.32;100.00
56668;BME280;42542;48.360;10.958;2023-05-11T09:52:48;95860.63;;;11.31;100.00
56668;BME280;42542;48.360;10.958;2023-05-11T09:55:54;95857.94;;;11.31;100.00
56668;BME280;42542;48.360;10.958;2023-05-11T09:58:56;95866.81;;;11.31;100.00
56668;BME280;42542;48.360;10.958;2023-05-11T10:02:15;95865.50;;;11.27;100.00
56668;BME280;42542;48.360;10.958;2023-05-11T10:05:18;95859.31;;;11.27;100.00
56668;BME280;42542;48.360;10.958;2023-05-11T10:08:28;95850.28;;;11.28;100.00
56668;BME280;42542;48.360;10.958;2023-05-11T10:11:37;95859.31;;;11.27;100.00
56668;BME280;42542;48.360;10.958;2023-05-11T10:14:40;95853.50;;;11.23;100.00
56668;BME280;42542;48.360;10.958;2023-05-11T10:17:42;95863.16;;;11.24;100.00
56668;BME280;42542;48.360;10.958;2023-05-11T10:20:46;95862.53;;;11.22;100.00
56668;BME280;42542;48.360;10.958;2023-05-11T10:23:49;95861.88;;;11.20;100.00
56668;BME280;42542;48.360;10.958;2023-05-11T10:26:53;95858.34;;;11.20;100.00
56668;BME280;42542;48.360;10.958;2023-05-11T10:29:58;95851.00;;;11.22;100.00
56668;BME280;42542;48.360;10.958;2023-05-11T10:33:00;95852.84;;;11.21;100.00
56668;BME280;42542;48.360;10.958;2023-05-11T10:36:03;95851.63;;;11.24;100.00
56668;BME280;42542;48.360;10.958;2023-05-11T10:39:05;95850.84;;;11.23;100.00
56668;BME280;42542;48.360;10.958;2023-05-11T10:46:17;95855.00;;;11.18;100.00
56668;BME280;42542;48.360;10.958;2023-05-11T10:59:44;95851.06;;;11.06;100.00
56668;BME280;42542;48.360;10.958;2023-05-11T11:02:51;95851.91;;;11.06;100.00
56668;BME280;42542;48.360;10.958;2023-05-11T11:05:53;95855.75;;;11.04;100.00
56668;BME280;42542;48.360;10.958;2023-05-11T11:08:57;95853.06;;;11.04;100.00
56668;BME280;42542;48.360;10.958;2023-05-11T11:12:08;95845.19;;;11.10;100.00
56668;BME280;42542;48.360;10.958;2023-05-11T11:15:10;95848.06;;;11.09;100.00
56668;BME280;42542;48.360;10.958;2023-05-11T11:21:40;95852.16;;;11.19;100.00
56668;BME280;42542;48.360;10.958;2023-05-11T11:24:43;95841.13;;;11.22;100.00
56668;BME280;42542;48.360;10.958;2023-05-11T11:30:47;95840.81;;;11.17;100.00
56668;BME280;42542;48.360;10.958;2023-05-11T11:33:50;95849.84;;;11.16;100.00
56668;BME280;42542;48.360;10.958;2023-05-11T11:39:57;95841.66;;;11.10;100.00
56668;BME280;42542;48.360;10.958;2023-05-11T11:43:24;95851.69;;;11.16;100.00
56668;BME280;42542;48.360;10.958;2023-05-11T11:46:27;95847.19;;;11.16;100.00
56668;BME280;42542;48.360;10.958;2023-05-11T11:49:30;95844.97;;;11.20;100.00
56668;BME280;42542;48.360;10.958;2023-05-11T11:52:33;95840.28;;;11.22;100.00
56668;BME280;42542;48.360;10.958;2023-05-11T11:55:50;95841.59;;;11.26;100.00
56668;BME280;42542;48.360;10.958;2023-05-11T11:58:59;95841.44;;;11.27;100.00
56668;BME280;42542;48.360;10.958;2023-05-11T12:02:04;95850.97;;;11.30;100.00
56668;BME280;42542;48.360;10.958;2023-05-11T12:05:15;95842.94;;;11.30;100.00
56668;BME280;42542;48.360;10.958;2023-05-11T12:08:24;95843.78;;;11.30;100.00
56668;BME280;42542;48.360;10.958;2023-05-11T12:11:28;95846.25;;;11.32;100.00
56668;BME280;42542;48.360;10.958;2023-05-11T12:14:30;95841.72;;;11.32;100.00
56668;BME280;42542;48.360;10.958;2023-05-11T12:17:37;95849.59;;;11.34;100.00
56668;BME280;42542;48.360;10.958;2023-05-11T12:20:39;95849.75;;;11.32;100.00
56668;BME280;42542;48.360;10.958;2023-05-11T12:23:50;95848.28;;;11.30;100.00
56668;BME280;42542;48.360;10.958;2023-05-11T12:26:56;95849.28;;;11.29;100.00
56668;BME280;42542;48.360;10.958;2023-05-11T12:29:58;95851.28;;;11.27;100.00
56668;BME280;42542;48.360;10.958;2023-05-11T12:33:00;95851.47;;;11.25;100.00
56668;BME280;42542;48.360;10.958;2023-05-11T12:36:07;95844.81;;;11.21;100.00
56668;BME280;42542;48.360;10.958;2023-05-11T12:39:15;95841.31;;;11.21;100.00
56668;BME280;42542;48.360;10.958;2023-05-11T12:42:17;95835.13;;;11.20;100.00
56668;BME280;42542;48.360;10.958;2023-05-11T12:45:19;95837.78;;;11.20;100.00
56668;BME280;42542;48.360;10.958;2023-05-11T12:48:24;95832.09;;;11.23;100.00
56668;BME280;42542;48.360;10.958;2023-05-11T12:51:46;95831.72;;;11.26;100.00
56668;BME280;42542;48.360;10.958;2023-05-11T12:54:49;95833.06;;;11.30;100.00
56668;BME280;42542;48.360;10.958;2023-05-11T12:58:10;95835.75;;;11.30;100.00
56668;BME280;42542;48.360;10.958;2023-05-11T13:01:13;95826.69;;;11.31;100.00
56668;BME280;42542;48.360;10.958;2023-05-11T13:04:14;95828.00;;;11.35;100.00
56668;BME280;42542;48.360;10.958;2023-05-11T13:07:26;95818.97;;;11.37;100.00
56668;BME280;42542;48.360;10.958;2023-05-11T13:10:28;95828.19;;;11.34;100.00
56668;BME280;42542;48.360;10.958;2023-05-11T13:13:31;95825.22;;;11.29;100.00
56668;BME280;42542;48.360;10.958;2023-05-11T13:16:33;95824.53;;;11.27;100.00
56668;BME280;42542;48.360;10.958;2023-05-11T13:19:35;95821.03;;;11.26;100.00
56668;BME280;42542;48.360;10.958;2023-05-11T13:22:38;95815.22;;;11.23;100.00
56668;BME280;42542;48.360;10.958;2023-05-11T13:28:50;95810.31;;;11.26;100.00
56668;BME280;42542;48.360;10.958;2023-05-11T13:32:10;95813.84;;;11.27;100.00
56668;BME280;42542;48.360;10.958;2023-05-11T13:35:13;95802.31;;;11.26;100.00
56668;BME280;42542;48.360;10.958;2023-05-11T13:38:16;95812.34;;;11.24;100.00
56668;BME280;42542;48.360;10.958;2023-05-11T13:41:18;95801.47;;;11.26;100.00
56668;BME280;42542;48.360;10.958;2023-05-11T13:44:19;95808.97;;;11.30;100.00
56668;BME280;42542;48.360;10.958;2023-05-11T13:47:22;95801.41;;;11.34;100.00
56668;BME280;42542;48.360;10.958;2023-05-11T13:50:25;95804.75;;;11.36;100.00
56668;BME280;42542;48.360;10.958;2023-05-11T13:53:27;95800.53;;;11.42;100.00
56668;BME280;42542;48.360;10.958;2023-05-11T13:56:30;95803.72;;;11.45;100.00
56668;BME280;42542;48.360;10.958;2023-05-11T13:59:32;95799.16;;;11.46;100.00
56668;BME280;42542;48.360;10.958;2023-05-11T14:02:34;95790.63;;;11.50;100.00
56668;BME280;42542;48.360;10.958;2023-05-11T14:05:35;95786.09;;;11.51;100.00
56668;BME280;42542;48.360;10.958;2023-05-11T14:08:39;95789.06;;;11.56;100.00
56668;BME280;42542;48.360;10.958;2023-05-11T14:11:42;95794.41;;;11.56;100.00
56668;BME280;42542;48.360;10.958;2023-05-11T14:14:44;95781.03;;;11.56;100.00
56668;BME280;42542;48.360;10.958;2023-05-11T14:17:46;95779.75;;;11.52;100.00
56668;BME280;42542;48.360;10.958;2023-05-11T14:20:50;95788.06;;;11.57;100.00
56668;BME280;42542;48.360;10.958;2023-05-11T14:23:52;95785.84;;;11.60;100.00
56668;BME280;42542;48.360;10.958;2023-05-11T14:27:12;95772.94;;;11.64;100.00
56668;BME280;42542;48.360;10.958;2023-05-11T14:30:14;95785.16;;;11.66;100.00
56668;BME280;42542;48.360;10.958;2023-05-11T14:33:17;95782.09;;;11.69;100.00
56668;BME280;42542;48.360;10.958;2023-05-11T14:36:18;95782.66;;;11.65;100.00
56668;BME280;42542;48.360;10.958;2023-05-11T14:39:21;95777.75;;;11.68;100.00
56668;BME280;42542;48.360;10.958;2023-05-11T14:42:22;95781.41;;;11.76;100.00
56668;BME280;42542;48.360;10.958;2023-05-11T14:45:25;95782.25;;;11.76;100.00
56668;BME280;42542;48.360;10.958;2023-05-11T14:48:27;95780.06;;;11.80;100.00
56668;BME280;42542;48.360;10.958;2023-05-11T14:51:29;95785.59;;;11.78;99.46
56668;BME280;42542;48.360;10.958;2023-05-11T14:54:33;95782.72;;;11.80;99.40
56668;BME280;42542;48.360;10.958;2023-05-11T14:57:36;95779.88;;;11.81;99.14
56668;BME280;42542;48.360;10.958;2023-05-11T15:00:38;95776.66;;;11.86;100.00
56668;BME280;42542;48.360;10.958;2023-05-11T15:03:40;95777.31;;;11.88;99.20
56668;BME280;42542;48.360;10.958;2023-05-11T15:06:42;95771.84;;;11.81;98.13
56668;BME280;42542;48.360;10.958;2023-05-11T15:09:45;95781.72;;;11.81;98.05
56668;BME280;42542;48.360;10.958;2023-05-11T15:12:46;95784.28;;;11.74;99.13
56668;BME280;42542;48.360;10.958;2023-05-11T15:15:48;95782.09;;;11.69;98.48
56668;BME280;42542;48.360;10.958;2023-05-11T15:18:51;95792.69;;;11.63;97.65
56668;BME280;42542;48.360;10.958;2023-05-11T15:21:52;95792.69;;;11.63;98.95
56668;BME280;42542;48.360;10.958;2023-05-11T15:24:55;95790.84;;;11.63;98.72
56668;BME280;42542;48.360;10.958;2023-05-11T15:27:57;95791.19;;;11.60;99.43
56668;BME280;42542;48.360;10.958;2023-05-11T15:31:01;95797.22;;;11.62;100.00
56668;BME280;42542;48.360;10.958;2023-05-11T15:34:03;95796.38;;;11.62;100.00
56668;BME280;42542;48.360;10.958;2023-05-11T15:37:05;95796.38;;;11.62;100.00
56668;BME280;42542;48.360;10.958;2023-05-11T15:40:07;95801.56;;;11.63;100.00
56668;BME280;42542;48.360;10.958;2023-05-11T15:43:10;95792.69;;;11.63;100.00
56668;BME280;42542;48.360;10.958;2023-05-11T15:46:12;95801.72;;;11.62;100.00
56668;BME280;42542;48.360;10.958;2023-05-11T15:49:14;95802.56;;;11.62;100.00
56668;BME280;42542;48.360;10.958;2023-05-11T15:52:17;95808.75;;;11.63;100.00
56668;BME280;42542;48.360;10.958;2023-05-11T15:55:19;95801.72;;;11.62;100.00
56668;BME280;42542;48.360;10.958;2023-05-11T15:58:21;95805.06;;;11.64;100.00
56668;BME280;42542;48.360;10.958;2023-05-11T16:01:23;95803.41;;;11.63;100.00
56668;BME280;42542;48.360;10.958;2023-05-11T16:04:25;95803.41;;;11.63;100.00
56668;BME280;42542;48.360;10.958;2023-05-11T16:07:27;95808.75;;;11.63;100.00
56668;BME280;42542;48.360;10.958;2023-05-11T16:10:30;95802.75;;;11.61;100.00
56668;BME280;42542;48.360;10.958;2023-05-11T16:13:31;95805.41;;;11.61;100.00
56668;BME280;42542;48.360;10.958;2023-05-11T16:16:33;95802.94;;;11.59;100.00
56668;BME280;42542;48.360;10.958;2023-05-11T16:19:35;95794.41;;;11.56;100.00
56668;BME280;42542;48.360;10.958;2023-05-11T16:22:38;95800.59;;;11.56;100.00
56668;BME280;42542;48.360;10.958;2023-05-11T16:25:39;95804.13;;;11.57;100.00
56668;BME280;42542;48.360;10.958;2023-05-11T16:28:42;95795.25;;;11.56;100.00
56668;BME280;42542;48.360;10.958;2023-05-11T16:31:43;95787.41;;;11.55;100.00